createdAt,value
2022-08-26T00:02:46.156Z,22.244147157190636
2022-08-26T00:09:08.000Z,22.97993311036789
2022-08-26T00:15:29.381Z,22.849498327759196
2022-08-26T00:21:51.230Z,23.648829431438127
2022-08-26T00:28:13.400Z,23.899665551839465
2022-08-26T00:35:16.794Z,23.39799331103679
2022-08-26T00:41:38.683Z,23.48160535117057
2022-08-26T00:48:23.633Z,24.19732441471572
2022-08-26T00:54:45.049Z,24.62876254180602
2022-08-26T01:01:06.214Z,24.123745819397993
2022-08-26T01:07:27.638Z,24.792642140468228
2022-08-26T01:13:52.369Z,24.59531772575251
2022-08-26T01:25:31.749Z,25.02006688963211
2022-08-26T01:34:35.006Z,24.909698996655518
2022-08-26T01:47:13.538Z,25.839464882943144
2022-08-26T01:53:35.871Z,25.632107023411372
2022-08-26T02:02:15.854Z,25.775919732441473
2022-08-26T02:12:00.174Z,27.50836120401338
2022-08-26T02:31:47.249Z,26.040133779264213
2022-08-26T02:43:39.618Z,26.384615384615383
2022-08-26T02:50:01.486Z,27.849498327759196
2022-08-26T02:56:22.862Z,25.755852842809364
2022-08-26T03:07:10.930Z,28.08695652173913
2022-08-26T03:19:06.556Z,27.123745819397993
2022-08-26T03:25:37.474Z,28.83277591973244
2022-08-26T03:34:29.055Z,27.83277591973244
2022-08-26T03:43:10.672Z,26.929765886287626
2022-08-26T03:53:37.323Z,29.264214046822744
2022-08-26T04:01:46.978Z,30.414715719063544
2022-08-26T04:08:09.262Z,29.48160535117057
2022-08-26T04:14:31.327Z,29.224080267558527
2022-08-26T04:28:55.125Z,28.31438127090301
2022-08-26T04:35:16.721Z,28.187290969899667
2022-08-26T04:47:16.950Z,30.976588628762542
2022-08-26T04:53:51.922Z,32.37792642140468
2022-08-26T05:00:13.112Z,31.535117056856187
2022-08-26T05:06:37.053Z,32.05351170568562
2022-08-26T05:12:58.237Z,33.331103678929765
2022-08-26T05:24:17.991Z,32.98996655518395
2022-08-26T05:54:57.587Z,33.98327759197324
2022-08-26T06:01:18.794Z,33.725752508361204
2022-08-26T06:07:41.203Z,34.06688963210702
2022-08-26T06:14:03.918Z,34.50501672240803
2022-08-26T06:20:27.913Z,35.33779264214047
2022-08-26T06:30:05.735Z,34.95986622073578
2022-08-26T06:36:27.587Z,33.25418060200669
2022-08-26T06:42:49.617Z,34.474916387959865
2022-08-26T06:49:11.678Z,35.15719063545151
2022-08-26T06:55:32.606Z,33.508361204013376
2022-08-26T07:02:22.296Z,33.374581939799334
2022-08-26T07:08:43.642Z,34.558528428093645
2022-08-26T07:15:04.906Z,35.31438127090301
2022-08-26T07:27:20.316Z,32.73913043478261
2022-08-26T07:33:46.096Z,31.598662207357858
2022-08-26T07:43:44.620Z,33.123745819397996
2022-08-26T07:50:12.340Z,32.03344481605351
2022-08-26T08:04:58.510Z,32.59866220735786
2022-08-26T08:11:22.329Z,30.337792642140467
2022-08-26T08:21:37.182Z,28.93979933110368
2022-08-26T08:28:00.287Z,29.03010033444816
2022-08-26T08:34:24.990Z,25.792642140468228
2022-08-26T08:40:46.698Z,26.85284280936455
2022-08-26T08:47:08.581Z,28.31438127090301
2022-08-26T08:55:35.281Z,26.076923076923077
2022-08-26T09:01:57.482Z,25.411371237458194
2022-08-26T09:08:20.476Z,25.157190635451506
2022-08-26T09:14:42.145Z,25.08026755852843
2022-08-26T09:21:04.422Z,23.441471571906355
2022-08-26T09:27:25.850Z,25.066889632107024
2022-08-26T09:33:47.746Z,24.321070234113712
2022-08-26T09:43:57.026Z,24.25083612040134
2022-08-26T09:50:18.818Z,21.02006688963211
2022-08-26T09:56:39.945Z,21.42809364548495
2022-08-26T10:05:12.474Z,23.42809364548495
2022-08-26T10:11:33.712Z,24.107023411371237
2022-08-26T10:17:54.999Z,23.54180602006689
2022-08-26T10:34:00.042Z,23.51170568561873
2022-08-26T10:40:25.024Z,22.267558528428093
2022-08-26T10:46:57.640Z,22.652173913043477
2022-08-26T10:53:25.377Z,22.842809364548494
2022-08-26T10:59:51.745Z,22.321070234113712
2022-08-26T11:06:17.676Z,23.59197324414716
2022-08-26T11:12:49.386Z,24.765886287625417
2022-08-26T11:20:30.305Z,24.642140468227424
2022-08-26T11:29:26.507Z,25.150501672240804
2022-08-26T11:36:12.323Z,23.140468227424748
2022-08-26T11:42:48.448Z,25.789297658862875
2022-08-26T11:52:41.095Z,24.224080267558527
2022-08-26T11:59:05.767Z,23.327759197324415
2022-08-26T12:08:38.062Z,24.76923076923077
2022-08-26T12:15:02.234Z,23.879598662207357
2022-08-26T12:23:39.193Z,25.68896321070234
2022-08-26T12:35:56.668Z,25.52173913043478
2022-08-26T12:42:20.326Z,28.765886287625417
2022-08-26T12:53:10.954Z,33.46153846153846
2022-08-26T12:59:34.481Z,35.31103678929766
2022-08-26T13:05:57.335Z,36.675585284280935
2022-08-26T13:19:10.335Z,33.69899665551839
2022-08-26T13:25:33.094Z,30.561872909698998
2022-08-26T13:31:57.131Z,28.54180602006689
2022-08-26T13:38:33.444Z,28.11371237458194
2022-08-26T13:45:34.301Z,36.27090301003344
2022-08-26T13:53:23.814Z,38.558528428093645
2022-08-26T14:00:54.565Z,38.60535117056856
2022-08-26T14:07:21.861Z,34.16053511705686
2022-08-26T14:13:45.625Z,18.157190635451506
2022-08-26T14:20:10.574Z,20.59197324414716
2022-08-26T14:26:34.918Z,16.85284280936455
2022-08-26T14:32:59.944Z,15.74581939799331
2022-08-26T14:39:25.619Z,16.525083612040135
2022-08-26T14:45:53.081Z,18.157190635451506
2022-08-26T14:52:25.328Z,25.53846153846154
2022-08-26T14:58:49.615Z,38.48829431438127
2022-08-26T15:08:38.299Z,44.68561872909699
2022-08-26T15:26:52.719Z,43.408026755852845
2022-08-26T15:33:15.605Z,40.01003344481605
2022-08-26T15:39:39.708Z,37.147157190635454
2022-08-26T15:46:02.268Z,35.8561872909699
2022-08-26T15:52:25.302Z,36.802675585284284
2022-08-26T15:58:48.649Z,36.020066889632105
2022-08-26T16:05:12.569Z,37.05016722408027
2022-08-26T16:11:37.485Z,37.5685618729097
2022-08-26T16:18:01.817Z,39.50501672240803
2022-08-26T16:30:03.296Z,37.381270903010034
2022-08-26T16:36:26.533Z,34.66555183946488
2022-08-26T16:42:50.815Z,34.30769230769231
2022-08-26T16:49:15.506Z,30.565217391304348
2022-08-26T16:55:36.694Z,27.103678929765888
2022-08-26T17:03:50.789Z,20.755852842809364
2022-08-26T17:10:12.193Z,16.983277591973245
2022-08-26T17:16:33.518Z,15.48494983277592
2022-08-26T17:27:16.200Z,14.050167224080267
2022-08-26T17:33:40.780Z,11.418060200668897
2022-08-26T17:42:14.957Z,10.963210702341136
2022-08-26T17:48:37.090Z,8.568561872909699
2022-08-26T17:58:23.581Z,7.8193979933110365
2022-08-26T18:08:35.581Z,7.862876254180602
2022-08-26T18:14:57.756Z,7.608695652173913
2022-08-26T18:27:02.776Z,7.317725752508361
2022-08-26T18:40:43.297Z,7.545150501672241
2022-08-26T18:48:15.820Z,6.301003344481606
2022-08-26T18:54:39.723Z,5.160535117056856
2022-08-26T19:01:03.824Z,5.471571906354515
2022-08-26T19:07:26.981Z,6.391304347826087
2022-08-26T19:15:31.892Z,6.367892976588629
2022-08-26T19:21:56.570Z,6.451505016722408
2022-08-26T19:28:30.203Z,5.792642140468227
2022-08-26T19:34:53.381Z,6.816053511705686
2022-08-26T19:41:15.177Z,4.946488294314381
2022-08-26T19:47:38.238Z,5.909698996655519
2022-08-26T19:54:00.651Z,5.096989966555184
2022-08-26T20:00:23.169Z,5.334448160535117
2022-08-26T20:06:51.096Z,6.080267558528428
2022-08-26T20:13:22.620Z,5.8996655518394645
2022-08-26T20:19:47.143Z,4.782608695652174
2022-08-26T20:26:12.593Z,5.066889632107023
2022-08-26T20:32:35.675Z,5.127090301003345
2022-08-26T20:42:37.322Z,4.976588628762542
2022-08-26T20:51:01.936Z,5.625418060200669
2022-08-26T20:57:24.343Z,5.581939799331104
2022-08-26T21:03:45.480Z,4.8561872909699
2022-08-26T21:10:06.850Z,5.505016722408027
2022-08-26T21:16:28.220Z,6.076923076923077
2022-08-26T21:22:50.172Z,5.1638795986622075
2022-08-26T21:29:10.761Z,6.735785953177258
2022-08-26T21:35:31.747Z,5.705685618729097
2022-08-26T21:41:52.264Z,5.7959866220735785
2022-08-26T21:51:47.292Z,6.207357859531773
2022-08-26T21:58:07.735Z,6.946488294314381
2022-08-26T22:04:28.400Z,6.555183946488294
2022-08-26T22:10:49.712Z,7.05685618729097
2022-08-26T22:17:10.874Z,6.45819397993311
2022-08-26T22:23:31.838Z,5.956521739130435
2022-08-26T22:35:59.587Z,6.334448160535117
2022-08-26T22:42:21.214Z,5.709030100334449
2022-08-26T22:48:42.453Z,4.792642140468227
2022-08-26T22:55:03.456Z,4.414715719063545
2022-08-26T23:01:24.234Z,4.498327759197324
2022-08-26T23:07:45.674Z,3.9565217391304346
2022-08-26T23:14:06.934Z,4.40133779264214
2022-08-26T23:30:04.683Z,3.5351170568561874
2022-08-26T23:36:26.801Z,2.82943143812709
2022-08-26T23:42:47.953Z,3.1538461538461537
2022-08-26T23:49:27.734Z,2.1471571906354514
2022-08-26T23:55:48.812Z,2.7759197324414715
